Time;durP1;ratioP1;P1;durP2;ratioP2;P2;SDS_P1;SDS_P2;PMS_P1;PMS_P2;Temp;Humidity;BMP_temperature;BMP_pressure;BME280_temperature;BME280_humidity;BME280_pressure;Samples;Min_cycle;Max_cycle;Signal;HPM_P1;HPM_P2
2023/06/06 00:00:41;;;;;;;7.82;3.05;;;;;;;;;;5061381;28;20421;-79
2023/06/06 00:03:14;;;;;;;7.28;3.25;;;;;;;;;;5061761;28;20447;-80
2023/06/06 00:05:41;;;;;;;6.53;3.05;;;;;;;;;;5059964;28;20424;-80
2023/06/06 00:08:11;;;;;;;7.57;2.80;;;;;;;;;;5067942;28;20416;-80
2023/06/06 00:10:39;;;;;;;8.55;2.78;;;;;;;;;;5062513;28;20810;-80
2023/06/06 00:13:13;;;;;;;6.40;2.80;;;;;;;;;;5060852;28;20509;-79
2023/06/06 00:15:46;;;;;;;6.93;2.90;;;;;;;;;;5064784;28;20420;-80
2023/06/06 00:18:15;;;;;;;7.88;2.83;;;;;;;;;;5060416;28;20429;-79
2023/06/06 00:20:48;;;;;;;15.07;3.60;;;;;;;;;;5063602;28;20418;-80
2023/06/06 00:23:17;;;;;;;15.60;3.65;;;;;;;;;;5068056;28;20416;-79
2023/06/06 00:25:50;;;;;;;8.95;3.20;;;;;;;;;;5060074;28;20427;-79
2023/06/06 00:28:18;;;;;;;8.40;2.90;;;;;;;;;;5060865;28;21032;-80
2023/06/06 00:30:46;;;;;;;8.30;3.40;;;;;;;;;;5062976;28;20407;-80
2023/06/06 00:33:14;;;;;;;8.13;3.10;;;;;;;;;;5064682;28;20427;-80
2023/06/06 00:35:42;;;;;;;6.00;2.90;;;;;;;;;;5059941;28;20405;-80
2023/06/06 00:38:10;;;;;;;6.53;3.03;;;;;;;;;;5076459;28;20417;-80
2023/06/06 00:40:39;;;;;;;6.82;2.80;;;;;;;;;;5066384;28;20432;-80
2023/06/06 00:43:12;;;;;;;8.60;2.95;;;;;;;;;;5067057;28;20423;-80
2023/06/06 00:45:40;;;;;;;6.32;2.83;;;;;;;;;;5059031;28;20429;-79
2023/06/06 00:48:13;;;;;;;6.37;2.87;;;;;;;;;;5060257;28;20443;-80
2023/06/06 00:50:47;;;;;;;7.13;3.20;;;;;;;;;;5058814;28;20542;-80
2023/06/06 00:53:20;;;;;;;6.60;2.95;;;;;;;;;;5059675;28;20425;-79
2023/06/06 00:55:49;;;;;;;8.18;3.50;;;;;;;;;;5058502;28;20419;-79
2023/06/06 00:58:18;;;;;;;7.28;2.90;;;;;;;;;;5074938;28;20427;-79
2023/06/06 01:00:46;;;;;;;6.72;3.20;;;;;;;;;;5061723;28;20411;-79
2023/06/06 01:03:21;;;;;;;5.95;2.97;;;;;;;;;;5062049;28;20951;-80
2023/06/06 01:05:54;;;;;;;6.03;2.88;;;;;;;;;;5060393;28;20432;-80
2023/06/06 01:08:26;;;;;;;7.07;2.92;;;;;;;;;;5075161;28;20426;-79
2023/06/06 01:11:06;;;;;;;7.25;2.88;;;;;;;;;;5060135;28;20437;-79
2023/06/06 01:13:42;;;;;;;5.55;2.83;;;;;;;;;;5059640;28;20422;-80
2023/06/06 01:16:11;;;;;;;6.80;2.80;;;;;;;;;;5060312;28;20464;-79
2023/06/06 01:18:41;;;;;;;8.50;3.20;;;;;;;;;;5062939;28;20442;-80
2023/06/06 01:21:14;;;;;;;7.47;3.10;;;;;;;;;;5067201;28;20429;-80
2023/06/06 01:23:48;;;;;;;7.72;3.30;;;;;;;;;;5056852;28;20914;-79
2023/06/06 01:26:23;;;;;;;7.00;2.95;;;;;;;;;;5060952;28;20421;-80
2023/06/06 01:28:56;;;;;;;8.43;3.13;;;;;;;;;;5056461;28;20432;-79
2023/06/06 01:31:24;;;;;;;8.20;3.05;;;;;;;;;;5055211;28;20447;-79
2023/06/06 01:33:55;;;;;;;6.40;2.88;;;;;;;;;;5063951;28;20438;-80
2023/06/06 01:36:30;;;;;;;6.43;3.00;;;;;;;;;;5058242;28;20424;-79
2023/06/06 01:39:02;;;;;;;7.10;3.00;;;;;;;;;;5075867;28;20441;-80
2023/06/06 01:41:31;;;;;;;6.63;2.90;;;;;;;;;;5058592;28;20404;-79
2023/06/06 01:44:00;;;;;;;8.25;3.30;;;;;;;;;;5076640;28;20419;-80
2023/06/06 01:46:34;;;;;;;7.25;2.85;;;;;;;;;;5059725;28;20423;-80
2023/06/06 01:49:07;;;;;;;10.40;3.30;;;;;;;;;;5073032;28;20549;-80
2023/06/06 01:51:36;;;;;;;9.60;3.27;;;;;;;;;;5065468;28;20490;-79
2023/06/06 01:54:06;;;;;;;8.55;3.13;;;;;;;;;;5059604;28;21066;-79
2023/06/06 01:56:39;;;;;;;6.75;3.30;;;;;;;;;;5058900;28;20417;-79
2023/06/06 01:59:07;;;;;;;7.40;2.90;;;;;;;;;;5055365;28;20413;-79
2023/06/06 02:01:35;;;;;;;8.95;3.33;;;;;;;;;;5064480;28;20429;-79
2023/06/06 02:04:07;;;;;;;8.88;3.50;;;;;;;;;;5060039;28;20904;-79
2023/06/06 02:06:40;;;;;;;8.80;3.40;;;;;;;;;;5058100;28;20463;-79
2023/06/06 02:09:15;;;;;;;8.03;3.50;;;;;;;;;;5058685;28;20411;-79
2023/06/06 02:11:43;;;;;;;6.53;3.10;;;;;;;;;;5070021;28;20453;-79
2023/06/06 02:14:15;;;;;;;6.97;3.35;;;;;;;;;;5061714;28;20414;-79
2023/06/06 02:16:48;;;;;;;6.78;3.40;;;;;;;;;;5063148;28;20420;-79
2023/06/06 02:19:17;;;;;;;6.90;3.40;;;;;;;;;;5061268;28;20429;-79
2023/06/06 02:21:45;;;;;;;7.67;3.70;;;;;;;;;;5061152;28;20411;-79
2023/06/06 02:24:12;;;;;;;7.72;3.55;;;;;;;;;;5060572;28;20431;-80
2023/06/06 02:26:47;;;;;;;9.48;3.67;;;;;;;;;;5080252;28;20426;-80
2023/06/06 02:29:22;;;;;;;8.85;3.55;;;;;;;;;;5069377;28;20400;-79
2023/06/06 02:31:55;;;;;;;9.85;3.85;;;;;;;;;;5077645;28;20421;-79
2023/06/06 02:34:28;;;;;;;7.63;3.65;;;;;;;;;;5076351;28;20432;-80
2023/06/06 02:37:06;;;;;;;8.50;3.92;;;;;;;;;;5062347;28;20422;-79
2023/06/06 02:39:39;;;;;;;8.95;3.85;;;;;;;;;;5063214;28;20907;-80
2023/06/06 02:42:09;;;;;;;10.32;3.92;;;;;;;;;;5076459;28;20415;-79
2023/06/06 02:44:37;;;;;;;9.80;3.90;;;;;;;;;;5076770;28;20421;-79
2023/06/06 02:47:09;;;;;;;9.35;4.28;;;;;;;;;;5062289;28;20425;-79
2023/06/06 02:49:37;;;;;;;9.70;4.00;;;;;;;;;;5079743;28;20435;-79
2023/06/06 02:52:06;;;;;;;10.17;4.03;;;;;;;;;;5060390;28;20905;-79
2023/06/06 02:54:40;;;;;;;11.10;4.22;;;;;;;;;;5063161;28;20421;-79
2023/06/06 02:57:14;;;;;;;9.57;4.55;;;;;;;;;;5062707;28;20409;-79
2023/06/06 02:59:42;;;;;;;9.68;4.45;;;;;;;;;;5076679;28;20431;-79
2023/06/06 03:02:16;;;;;;;8.23;4.53;;;;;;;;;;5064012;28;20424;-79
2023/06/06 03:04:45;;;;;;;7.88;4.22;;;;;;;;;;5065458;28;20770;-79
2023/06/06 03:07:17;;;;;;;9.48;4.50;;;;;;;;;;5063490;28;20919;-80
2023/06/06 03:09:50;;;;;;;11.30;4.93;;;;;;;;;;5062463;28;20427;-79
2023/06/06 03:12:23;;;;;;;11.82;5.10;;;;;;;;;;5061226;28;20799;-79
2023/06/06 03:14:57;;;;;;;10.02;5.13;;;;;;;;;;5064343;28;20916;-79
2023/06/06 03:17:35;;;;;;;10.05;5.18;;;;;;;;;;5061752;28;20827;-79
2023/06/06 03:20:10;;;;;;;12.20;5.10;;;;;;;;;;5059393;28;20434;-79
2023/06/06 03:22:48;;;;;;;10.60;5.00;;;;;;;;;;5060315;28;20414;-79
2023/06/06 03:25:24;;;;;;;10.45;5.78;;;;;;;;;;5059564;28;20440;-79
2023/06/06 03:27:59;;;;;;;10.13;5.43;;;;;;;;;;5076818;28;20419;-79
2023/06/06 03:30:32;;;;;;;12.82;6.07;;;;;;;;;;5061465;28;20426;-79
2023/06/06 03:33:05;;;;;;;10.02;5.47;;;;;;;;;;5059343;28;21192;-79
2023/06/06 03:35:39;;;;;;;14.60;5.65;;;;;;;;;;5077998;28;20427;-80
2023/06/06 03:38:14;;;;;;;9.52;5.35;;;;;;;;;;5079294;28;20410;-80
2023/06/06 03:40:48;;;;;;;12.05;5.65;;;;;;;;;;5068508;28;20431;-79
2023/06/06 03:43:17;;;;;;;12.10;6.18;;;;;;;;;;5060388;28;20885;-79
2023/06/06 03:45:50;;;;;;;11.57;5.70;;;;;;;;;;5061944;28;20435;-80
2023/06/06 03:48:23;;;;;;;10.95;5.80;;;;;;;;;;5081572;28;20432;-80
2023/06/06 03:50:56;;;;;;;12.98;5.90;;;;;;;;;;5061023;28;20428;-79
2023/06/06 03:53:28;;;;;;;11.50;5.93;;;;;;;;;;5069143;28;20419;-79
2023/06/06 03:56:02;;;;;;;12.90;5.93;;;;;;;;;;5062545;28;20893;-80
2023/06/06 03:58:36;;;;;;;14.50;5.97;;;;;;;;;;5061358;28;20876;-79
2023/06/06 04:01:10;;;;;;;13.93;5.93;;;;;;;;;;5057850;28;20423;-79
2023/06/06 04:03:42;;;;;;;14.85;6.38;;;;;;;;;;5065450;28;20429;-80
2023/06/06 04:06:15;;;;;;;12.23;5.90;;;;;;;;;;5076274;28;20417;-79
2023/06/06 04:08:48;;;;;;;13.95;6.20;;;;;;;;;;5060516;28;20908;-79
2023/06/06 04:11:21;;;;;;;13.30;6.18;;;;;;;;;;5061480;28;20437;-79
2023/06/06 04:13:55;;;;;;;10.80;5.57;;;;;;;;;;5057783;28;20433;-79
2023/06/06 04:16:28;;;;;;;10.02;5.68;;;;;;;;;;5057134;28;20436;-79
2023/06/06 04:19:02;;;;;;;12.57;6.00;;;;;;;;;;5058200;28;20429;-80
2023/06/06 04:21:36;;;;;;;12.82;5.93;;;;;;;;;;5060157;28;20421;-80
2023/06/06 04:24:04;;;;;;;11.07;5.65;;;;;;;;;;5076979;28;20418;-79
2023/06/06 04:26:37;;;;;;;13.27;5.97;;;;;;;;;;5058922;28;20423;-79
2023/06/06 04:29:13;;;;;;;15.38;5.43;;;;;;;;;;5062227;28;20419;-79
2023/06/06 04:31:41;;;;;;;11.43;5.45;;;;;;;;;;5057231;28;20421;-78
2023/06/06 04:34:12;;;;;;;11.90;5.28;;;;;;;;;;5058027;28;20431;-80
2023/06/06 04:36:46;;;;;;;10.88;5.57;;;;;;;;;;5058926;28;20427;-79
2023/06/06 04:39:16;;;;;;;11.25;5.15;;;;;;;;;;5057704;28;20789;-80
2023/06/06 04:41:49;;;;;;;12.38;5.50;;;;;;;;;;5058782;28;20441;-79
2023/06/06 04:44:20;;;;;;;10.15;4.85;;;;;;;;;;5061176;28;20411;-79
2023/06/06 04:46:48;;;;;;;10.15;5.10;;;;;;;;;;5074633;28;20429;-79
2023/06/06 04:49:16;;;;;;;10.53;5.33;;;;;;;;;;5073954;28;20446;-79
2023/06/06 04:51:44;;;;;;;11.25;5.25;;;;;;;;;;5058261;28;20433;-79
2023/06/06 04:54:18;;;;;;;12.18;5.82;;;;;;;;;;5064046;28;20498;-80
2023/06/06 04:56:46;;;;;;;13.27;5.82;;;;;;;;;;5058317;28;20425;-80
2023/06/06 04:59:22;;;;;;;12.10;5.72;;;;;;;;;;5060039;28;20434;-80
2023/06/06 05:01:51;;;;;;;13.18;5.85;;;;;;;;;;5054622;28;21092;-79
2023/06/06 05:04:24;;;;;;;11.48;6.20;;;;;;;;;;5072271;28;20431;-80
2023/06/06 05:06:57;;;;;;;10.00;5.32;;;;;;;;;;5059003;28;20431;-80
2023/06/06 05:09:25;;;;;;;10.60;5.43;;;;;;;;;;5057702;28;20448;-80
2023/06/06 05:11:54;;;;;;;11.02;5.55;;;;;;;;;;5057514;28;20432;-81
2023/06/06 05:14:24;;;;;;;9.93;5.63;;;;;;;;;;5056995;28;20897;-80
2023/06/06 05:16:53;;;;;;;11.57;5.70;;;;;;;;;;5055475;28;20428;-81
2023/06/06 05:19:25;;;;;;;11.13;5.20;;;;;;;;;;5056798;28;20420;-81
2023/06/06 05:21:58;;;;;;;12.65;4.97;;;;;;;;;;5060205;28;20438;-82
2023/06/06 05:24:31;;;;;;;9.75;4.82;;;;;;;;;;5057424;28;20895;-82
2023/06/06 05:27:05;;;;;;;10.88;4.78;;;;;;;;;;5074972;28;20438;-83
2023/06/06 05:29:35;;;;;;;9.57;5.17;;;;;;;;;;5058657;28;20472;-82
2023/06/06 05:32:08;;;;;;;10.40;4.88;;;;;;;;;;5059242;28;20434;-80
2023/06/06 05:34:36;;;;;;;9.32;4.70;;;;;;;;;;5071038;28;20437;-81
2023/06/06 05:37:09;;;;;;;10.18;5.22;;;;;;;;;;5058659;28;20421;-81
2023/06/06 05:39:37;;;;;;;11.02;5.53;;;;;;;;;;5051588;28;20432;-81
2023/06/06 05:42:10;;;;;;;9.88;5.20;;;;;;;;;;5059677;28;20437;-81
2023/06/06 05:44:39;;;;;;;10.55;5.70;;;;;;;;;;5059026;28;20411;-82
2023/06/06 05:47:15;;;;;;;10.90;5.38;;;;;;;;;;5055769;28;20930;-83
2023/06/06 05:49:47;;;;;;;11.13;5.50;;;;;;;;;;5077719;28;20436;-81
2023/06/06 05:52:16;;;;;;;10.95;5.50;;;;;;;;;;5058114;28;20912;-82
2023/06/06 05:54:45;;;;;;;10.10;5.15;;;;;;;;;;5060284;28;22521;-83
2023/06/06 05:57:18;;;;;;;11.43;5.70;;;;;;;;;;5058844;28;20475;-82
2023/06/06 05:59:47;;;;;;;12.93;5.88;;;;;;;;;;5063967;28;20429;-81
2023/06/06 06:02:22;;;;;;;11.18;5.68;;;;;;;;;;5059455;28;20419;-82
2023/06/06 06:04:52;;;;;;;12.77;5.53;;;;;;;;;;5062515;28;20894;-82
2023/06/06 06:07:22;;;;;;;11.52;5.65;;;;;;;;;;5068231;28;20429;-83
2023/06/06 06:09:54;;;;;;;12.23;5.67;;;;;;;;;;5057751;28;20511;-82
2023/06/06 06:12:27;;;;;;;9.80;4.65;;;;;;;;;;5055467;28;20429;-84
2023/06/06 06:14:56;;;;;;;8.82;4.03;;;;;;;;;;5061100;28;20431;-82
2023/06/06 06:17:24;;;;;;;9.43;4.70;;;;;;;;;;5071586;28;20430;-83
2023/06/06 06:19:57;;;;;;;9.80;4.65;;;;;;;;;;5063950;28;20436;-83
2023/06/06 06:22:25;;;;;;;10.07;4.30;;;;;;;;;;5057870;28;20433;-81
2023/06/06 06:24:53;;;;;;;11.60;4.70;;;;;;;;;;5060224;28;20428;-83
2023/06/06 06:27:21;;;;;;;8.73;4.43;;;;;;;;;;5062181;28;20424;-82
2023/06/06 06:29:54;;;;;;;8.60;4.32;;;;;;;;;;5054234;28;20419;-81
2023/06/06 06:32:23;;;;;;;9.07;4.30;;;;;;;;;;5032812;28;20550;-81
2023/06/06 06:34:56;;;;;;;9.80;4.00;;;;;;;;;;5039898;28;20431;-81
2023/06/06 06:37:24;;;;;;;8.17;3.83;;;;;;;;;;5035031;28;20927;-80
2023/06/06 06:39:57;;;;;;;8.07;3.95;;;;;;;;;;5036594;28;20427;-79
2023/06/06 06:42:26;;;;;;;7.82;3.30;;;;;;;;;;5044611;28;20423;-80
2023/06/06 06:45:19;;;;;;;7.85;3.55;;;;;;;;;;5044153;28;20457;-83
2023/06/06 06:47:48;;;;;;;8.20;3.10;;;;;;;;;;5057052;28;20432;-80
2023/06/06 06:50:16;;;;;;;9.23;2.97;;;;;;;;;;5039091;28;20425;-81
2023/06/06 06:52:49;;;;;;;7.07;3.05;;;;;;;;;;5045157;28;20784;-80
2023/06/06 06:55:17;;;;;;;8.57;3.47;;;;;;;;;;5042021;28;20417;-81
2023/06/06 06:57:51;;;;;;;7.95;3.20;;;;;;;;;;5040361;28;22495;-80
2023/06/06 07:00:24;;;;;;;6.20;2.97;;;;;;;;;;5043690;28;20431;-80
2023/06/06 07:02:56;;;;;;;7.22;2.90;;;;;;;;;;5037738;28;20439;-81
2023/06/06 07:05:24;;;;;;;6.13;2.72;;;;;;;;;;5043723;28;20427;-81
2023/06/06 07:07:58;;;;;;;7.25;3.25;;;;;;;;;;5042208;28;22039;-80
2023/06/06 07:10:28;;;;;;;6.75;3.10;;;;;;;;;;5045772;28;20439;-81
2023/06/06 07:12:56;;;;;;;6.10;2.77;;;;;;;;;;5050032;28;20727;-80
2023/06/06 07:15:30;;;;;;;5.90;2.70;;;;;;;;;;5045586;28;21728;-79
2023/06/06 07:18:02;;;;;;;7.00;3.00;;;;;;;;;;5045527;28;20434;-81
2023/06/06 07:20:30;;;;;;;5.90;2.80;;;;;;;;;;5038115;28;22275;-81
2023/06/06 07:23:03;;;;;;;6.18;2.80;;;;;;;;;;5038799;28;20764;-81
2023/06/06 07:25:30;;;;;;;7.50;2.92;;;;;;;;;;5044576;28;20899;-81
2023/06/06 07:28:04;;;;;;;7.00;2.70;;;;;;;;;;5038900;28;20424;-81
2023/06/06 07:30:32;;;;;;;7.28;2.90;;;;;;;;;;5035020;28;20923;-82
2023/06/06 07:33:03;;;;;;;6.70;2.90;;;;;;;;;;5032192;28;20858;-80
2023/06/06 07:35:32;;;;;;;5.43;2.63;;;;;;;;;;5042250;28;20426;-80
2023/06/06 07:38:05;;;;;;;4.63;2.33;;;;;;;;;;5045150;28;20431;-81
2023/06/06 07:40:33;;;;;;;6.22;2.78;;;;;;;;;;5018070;28;20450;-80
2023/06/06 07:43:06;;;;;;;5.63;2.75;;;;;;;;;;5032789;28;20446;-81
2023/06/06 07:45:40;;;;;;;6.57;2.90;;;;;;;;;;5038156;28;20438;-82
2023/06/06 07:48:09;;;;;;;6.10;2.75;;;;;;;;;;5038871;28;20439;-83
2023/06/06 07:50:42;;;;;;;6.25;2.80;;;;;;;;;;5047304;28;20432;-82
2023/06/06 07:53:11;;;;;;;6.97;3.13;;;;;;;;;;5038557;28;20506;-82
2023/06/06 07:55:44;;;;;;;8.93;2.70;;;;;;;;;;5038054;28;20431;-81
2023/06/06 07:58:12;;;;;;;5.82;2.70;;;;;;;;;;5040346;28;20419;-81
2023/06/06 08:00:46;;;;;;;7.53;2.80;;;;;;;;;;5038346;28;20422;-82
2023/06/06 08:03:20;;;;;;;7.00;2.97;;;;;;;;;;5033958;28;20435;-79
2023/06/06 08:05:48;;;;;;;6.53;2.80;;;;;;;;;;5034357;28;20439;-80
2023/06/06 08:08:17;;;;;;;5.82;2.65;;;;;;;;;;5042066;28;20466;-83
2023/06/06 08:10:45;;;;;;;7.38;2.78;;;;;;;;;;5040371;28;20424;-80
2023/06/06 08:13:18;;;;;;;5.35;2.60;;;;;;;;;;5045747;28;20426;-82
2023/06/06 08:15:50;;;;;;;5.15;2.53;;;;;;;;;;5034173;28;21008;-82
2023/06/06 08:18:18;;;;;;;5.97;2.70;;;;;;;;;;5037924;28;20431;-80
2023/06/06 08:20:52;;;;;;;6.85;2.67;;;;;;;;;;5043153;28;20427;-81
2023/06/06 08:23:20;;;;;;;5.70;2.60;;;;;;;;;;5039851;28;20958;-81
2023/06/06 08:25:55;;;;;;;5.75;2.45;;;;;;;;;;5033919;28;20990;-80
2023/06/06 08:28:28;;;;;;;7.57;2.50;;;;;;;;;;5046242;28;20502;-81
2023/06/06 08:30:56;;;;;;;4.68;2.25;;;;;;;;;;5052425;28;20426;-81
2023/06/06 08:33:30;;;;;;;5.55;2.50;;;;;;;;;;5034728;28;20431;-82
2023/06/06 08:35:59;;;;;;;5.95;2.47;;;;;;;;;;5039185;28;20912;-81
2023/06/06 08:38:27;;;;;;;7.53;2.60;;;;;;;;;;5033733;28;20427;-81
2023/06/06 08:41:02;;;;;;;5.47;2.50;;;;;;;;;;5036305;28;20487;-81
2023/06/06 08:43:36;;;;;;;4.15;2.20;;;;;;;;;;5036717;28;20435;-81
2023/06/06 08:46:04;;;;;;;5.60;2.30;;;;;;;;;;5040615;28;20436;-81
2023/06/06 08:48:37;;;;;;;5.18;2.40;;;;;;;;;;5026960;28;20431;-80
2023/06/06 08:51:13;;;;;;;7.93;2.40;;;;;;;;;;5036883;28;20423;-82
2023/06/06 08:53:43;;;;;;;6.18;2.25;;;;;;;;;;5035864;28;20419;-80
2023/06/06 08:56:22;;;;;;;5.60;2.40;;;;;;;;;;5040102;28;20431;-85
2023/06/06 08:58:55;;;;;;;6.40;2.58;;;;;;;;;;5042106;28;20772;-81
2023/06/06 09:01:26;;;;;;;6.50;2.58;;;;;;;;;;5037602;28;20867;-81
2023/06/06 09:03:56;;;;;;;5.53;2.33;;;;;;;;;;5045842;28;20816;-82
2023/06/06 09:06:25;;;;;;;4.95;2.40;;;;;;;;;;5043558;28;20895;-82
2023/06/06 09:08:58;;;;;;;5.80;2.55;;;;;;;;;;5037467;28;21948;-80
2023/06/06 09:11:32;;;;;;;6.15;2.38;;;;;;;;;;5047704;28;20407;-81
2023/06/06 09:14:05;;;;;;;4.60;2.40;;;;;;;;;;5037191;28;20843;-82
2023/06/06 09:16:33;;;;;;;5.57;2.40;;;;;;;;;;5038105;28;20453;-82
2023/06/06 09:19:03;;;;;;;5.00;2.40;;;;;;;;;;5038087;28;20438;-81
2023/06/06 09:21:33;;;;;;;6.00;2.30;;;;;;;;;;5046357;28;20462;-81
2023/06/06 09:24:01;;;;;;;4.60;2.33;;;;;;;;;;5042936;28;20428;-81
2023/06/06 09:26:30;;;;;;;5.03;2.15;;;;;;;;;;5035203;28;20459;-82
2023/06/06 09:29:07;;;;;;;6.13;2.45;;;;;;;;;;5043613;28;20634;-82
2023/06/06 09:31:42;;;;;;;6.00;2.40;;;;;;;;;;5036959;28;20439;-81
2023/06/06 09:34:14;;;;;;;5.18;2.47;;;;;;;;;;5034151;28;20438;-82
2023/06/06 09:36:49;;;;;;;5.40;2.35;;;;;;;;;;5036424;28;20429;-87
2023/06/06 09:39:17;;;;;;;4.40;2.30;;;;;;;;;;5037565;28;20427;-81
2023/06/06 09:41:46;;;;;;;5.78;2.40;;;;;;;;;;5043277;28;20428;-82
2023/06/06 09:44:20;;;;;;;6.65;2.70;;;;;;;;;;5047275;28;20418;-81
2023/06/06 09:46:48;;;;;;;6.18;2.60;;;;;;;;;;5048615;28;20416;-80
2023/06/06 09:49:17;;;;;;;5.78;2.38;;;;;;;;;;5043909;28;20427;-79
2023/06/06 09:51:45;;;;;;;4.50;2.30;;;;;;;;;;5044226;28;20435;-79
2023/06/06 09:54:16;;;;;;;5.67;2.50;;;;;;;;;;5049106;28;20416;-77
2023/06/06 09:56:46;;;;;;;4.77;2.30;;;;;;;;;;5050238;28;20428;-84
2023/06/06 09:59:21;;;;;;;9.95;2.47;;;;;;;;;;5044271;28;20438;-80
2023/06/06 10:01:50;;;;;;;6.32;2.40;;;;;;;;;;5047097;28;20467;-81
2023/06/06 10:04:24;;;;;;;4.05;2.10;;;;;;;;;;5046105;28;20428;-79
2023/06/06 10:06:53;;;;;;;5.32;2.50;;;;;;;;;;5048926;28;20442;-84
2023/06/06 10:09:23;;;;;;;4.90;2.30;;;;;;;;;;5045470;28;20434;-80
2023/06/06 10:11:51;;;;;;;5.50;2.42;;;;;;;;;;5047692;28;20428;-80
2023/06/06 10:14:24;;;;;;;6.20;2.25;;;;;;;;;;5047169;28;20432;-80
2023/06/06 10:16:54;;;;;;;5.68;2.50;;;;;;;;;;5042762;28;20420;-79
2023/06/06 10:19:22;;;;;;;5.95;2.40;;;;;;;;;;5043398;28;21194;-80
2023/06/06 10:21:51;;;;;;;5.88;2.42;;;;;;;;;;5046347;28;20749;-82
2023/06/06 10:24:19;;;;;;;4.53;2.30;;;;;;;;;;5044533;28;20435;-83
2023/06/06 10:26:51;;;;;;;5.15;2.33;;;;;;;;;;5043946;28;20427;-83
2023/06/06 10:29:29;;;;;;;5.13;2.25;;;;;;;;;;5047614;28;20439;-78
2023/06/06 10:31:58;;;;;;;5.60;2.65;;;;;;;;;;5048768;28;20428;-82
2023/06/06 10:34:33;;;;;;;4.57;2.37;;;;;;;;;;5050147;28;20793;-81
2023/06/06 10:37:14;;;;;;;5.38;2.28;;;;;;;;;;5047052;28;20435;-80
2023/06/06 10:39:45;;;;;;;5.20;2.58;;;;;;;;;;5055533;28;20442;-79
2023/06/06 10:42:15;;;;;;;4.13;2.15;;;;;;;;;;5050259;28;20958;-80
2023/06/06 10:44:54;;;;;;;5.57;2.40;;;;;;;;;;5044886;28;20410;-82
2023/06/06 10:47:23;;;;;;;5.27;2.47;;;;;;;;;;5041483;28;20799;-80
2023/06/06 10:50:10;;;;;;;7.10;2.30;;;;;;;;;;5032372;28;20427;-79
2023/06/06 10:52:41;;;;;;;5.85;2.30;;;;;;;;;;5043730;28;20427;-80
2023/06/06 10:55:17;;;;;;;6.38;2.30;;;;;;;;;;5041715;28;21077;-81
2023/06/06 10:57:56;;;;;;;6.47;2.60;;;;;;;;;;5041385;28;20422;-82
2023/06/06 11:00:32;;;;;;;4.53;2.40;;;;;;;;;;5040038;28;20435;-81
2023/06/06 11:03:04;;;;;;;5.77;2.20;;;;;;;;;;5044551;28;21644;-82
2023/06/06 11:05:52;;;;;;;6.38;2.35;;;;;;;;;;5042116;28;21025;-83
2023/06/06 11:08:31;;;;;;;8.50;2.58;;;;;;;;;;5049041;28;20438;-80
2023/06/06 11:11:18;;;;;;;7.13;2.70;;;;;;;;;;5051496;28;20458;-79
2023/06/06 11:13:53;;;;;;;5.70;2.63;;;;;;;;;;5045577;28;20692;-83
2023/06/06 11:16:28;;;;;;;5.70;2.60;;;;;;;;;;5036933;28;20438;-80
2023/06/06 11:19:01;;;;;;;5.70;2.45;;;;;;;;;;5042376;28;20427;-82
2023/06/06 11:21:30;;;;;;;6.13;2.40;;;;;;;;;;5043895;28;21149;-81
2023/06/06 11:23:58;;;;;;;5.40;2.22;;;;;;;;;;5053593;28;20938;-80
2023/06/06 11:26:27;;;;;;;5.10;2.40;;;;;;;;;;5040918;28;20438;-77
2023/06/06 11:29:02;;;;;;;7.47;2.30;;;;;;;;;;5038906;28;20435;-82
2023/06/06 11:31:36;;;;;;;8.65;2.50;;;;;;;;;;5039433;28;20427;-79
2023/06/06 11:34:09;;;;;;;4.60;2.43;;;;;;;;;;5045286;28;20431;-86
2023/06/06 11:36:38;;;;;;;6.53;2.58;;;;;;;;;;5049700;28;20439;-82
2023/06/06 11:39:07;;;;;;;5.97;2.38;;;;;;;;;;5047591;28;20415;-79
2023/06/06 11:41:36;;;;;;;5.40;2.53;;;;;;;;;;5040466;28;20439;-83
2023/06/06 11:44:10;;;;;;;4.80;2.30;;;;;;;;;;5041016;28;20423;-81
2023/06/06 11:46:45;;;;;;;5.50;2.42;;;;;;;;;;5046564;28;20424;-81
2023/06/06 11:49:13;;;;;;;6.00;2.20;;;;;;;;;;5046491;28;20435;-82
2023/06/06 11:51:54;;;;;;;5.43;2.28;;;;;;;;;;5036523;28;20459;-78
2023/06/06 11:54:27;;;;;;;5.50;2.47;;;;;;;;;;5047888;28;20423;-80
2023/06/06 11:56:57;;;;;;;8.83;2.43;;;;;;;;;;5041207;28;20420;-80
2023/06/06 11:59:26;;;;;;;6.07;2.47;;;;;;;;;;5041120;28;20419;-77
2023/06/06 12:01:56;;;;;;;4.50;2.50;;;;;;;;;;5045617;28;20432;-79
2023/06/06 12:04:29;;;;;;;5.25;2.60;;;;;;;;;;5045179;28;20424;-79
2023/06/06 12:07:00;;;;;;;6.47;2.65;;;;;;;;;;5047282;28;20908;-82
2023/06/06 12:09:27;;;;;;;7.07;2.42;;;;;;;;;;5044201;28;20423;-81
2023/06/06 12:11:56;;;;;;;4.65;2.38;;;;;;;;;;5042517;28;21200;-81
2023/06/06 12:14:32;;;;;;;5.10;2.50;;;;;;;;;;5041014;28;20435;-82
2023/06/06 12:17:06;;;;;;;5.05;2.47;;;;;;;;;;5036361;28;20435;-79
2023/06/06 12:19:34;;;;;;;4.63;2.50;;;;;;;;;;5041079;28;20424;-80
2023/06/06 12:22:07;;;;;;;5.38;2.60;;;;;;;;;;5039064;28;20438;-80
2023/06/06 12:24:35;;;;;;;4.80;2.50;;;;;;;;;;5045557;28;20891;-81
2023/06/06 12:27:04;;;;;;;6.30;2.50;;;;;;;;;;5041024;28;20784;-77
2023/06/06 12:29:50;;;;;;;6.07;2.88;;;;;;;;;;5048157;28;20435;-80
2023/06/06 12:32:19;;;;;;;5.72;2.65;;;;;;;;;;5040645;28;20435;-82
2023/06/06 12:34:48;;;;;;;5.93;2.60;;;;;;;;;;5038331;28;20874;-78
2023/06/06 12:37:16;;;;;;;4.17;2.50;;;;;;;;;;5038015;28;20446;-81
2023/06/06 12:39:45;;;;;;;5.55;2.40;;;;;;;;;;5042954;28;20408;-82
2023/06/06 12:42:14;;;;;;;7.40;2.35;;;;;;;;;;5044717;28;20610;-80
2023/06/06 12:44:48;;;;;;;5.75;2.50;;;;;;;;;;5049228;28;20420;-80
2023/06/06 12:47:17;;;;;;;5.07;2.57;;;;;;;;;;5040210;28;21282;-81
2023/06/06 12:49:47;;;;;;;7.15;2.70;;;;;;;;;;5041982;28;20428;-79
2023/06/06 12:52:20;;;;;;;5.43;2.60;;;;;;;;;;5043627;28;20435;-81
2023/06/06 12:54:48;;;;;;;8.43;2.75;;;;;;;;;;5039672;28;20427;-82
2023/06/06 12:57:22;;;;;;;9.25;2.80;;;;;;;;;;5040690;28;20431;-80
2023/06/06 12:59:51;;;;;;;5.30;2.60;;;;;;;;;;5045198;28;20431;-78
2023/06/06 13:02:19;;;;;;;6.00;2.90;;;;;;;;;;5031447;28;20444;-81
2023/06/06 13:04:47;;;;;;;5.23;2.77;;;;;;;;;;5042859;28;20420;-82
2023/06/06 13:07:20;;;;;;;5.97;2.60;;;;;;;;;;5041494;28;20431;-83
2023/06/06 13:09:48;;;;;;;7.30;3.15;;;;;;;;;;5039927;28;20432;-81
2023/06/06 13:12:15;;;;;;;7.38;2.75;;;;;;;;;;5044263;28;20427;-81
2023/06/06 13:14:43;;;;;;;4.88;2.45;;;;;;;;;;5046499;28;20428;-82
2023/06/06 13:17:17;;;;;;;5.28;2.40;;;;;;;;;;5040206;28;20423;-82
2023/06/06 13:19:51;;;;;;;6.18;2.40;;;;;;;;;;5043370;28;21047;-83
2023/06/06 13:22:19;;;;;;;4.63;2.40;;;;;;;;;;5043457;28;20423;-78
2023/06/06 13:24:52;;;;;;;5.20;2.53;;;;;;;;;;5046331;28;20427;-81
2023/06/06 13:27:25;;;;;;;5.60;2.47;;;;;;;;;;5039519;28;20432;-79
2023/06/06 13:29:55;;;;;;;6.50;2.70;;;;;;;;;;5040384;28;20442;-80
2023/06/06 13:32:30;;;;;;;5.82;2.40;;;;;;;;;;5052344;28;20434;-83
2023/06/06 13:34:58;;;;;;;4.53;2.40;;;;;;;;;;5044442;28;20944;-82
2023/06/06 13:37:26;;;;;;;4.50;2.45;;;;;;;;;;5043444;28;20423;-84
2023/06/06 13:39:59;;;;;;;5.53;2.57;;;;;;;;;;5048449;28;20431;-81
2023/06/06 13:42:27;;;;;;;7.30;2.50;;;;;;;;;;5040169;28;20423;-81
2023/06/06 13:44:55;;;;;;;5.57;2.50;;;;;;;;;;5048553;28;20435;-80
2023/06/06 13:47:23;;;;;;;5.45;2.60;;;;;;;;;;5050069;28;20435;-79
2023/06/06 13:49:52;;;;;;;6.13;2.80;;;;;;;;;;5047327;28;20772;-82
2023/06/06 13:52:25;;;;;;;6.00;2.50;;;;;;;;;;5043715;28;20427;-82
2023/06/06 13:54:55;;;;;;;6.72;2.38;;;;;;;;;;5047356;28;20431;-81
2023/06/06 13:57:28;;;;;;;8.25;2.60;;;;;;;;;;5046743;28;20420;-81
2023/06/06 13:59:56;;;;;;;7.43;2.63;;;;;;;;;;5044075;28;20824;-79
2023/06/06 14:02:24;;;;;;;5.68;2.55;;;;;;;;;;5044142;28;20426;-80
2023/06/06 14:04:54;;;;;;;5.13;2.50;;;;;;;;;;5042857;28;20428;-82
2023/06/06 14:07:23;;;;;;;5.13;2.53;;;;;;;;;;5065931;28;20432;-81
2023/06/06 14:09:50;;;;;;;8.75;2.60;;;;;;;;;;5038567;28;20435;-80
2023/06/06 14:12:18;;;;;;;4.32;2.38;;;;;;;;;;5031366;28;20408;-78
2023/06/06 14:14:47;;;;;;;4.65;2.33;;;;;;;;;;5037350;28;20428;-81
2023/06/06 14:17:16;;;;;;;4.00;2.47;;;;;;;;;;5043709;28;20439;-81
2023/06/06 14:19:53;;;;;;;6.75;2.53;;;;;;;;;;5040662;28;20477;-82
2023/06/06 14:22:32;;;;;;;5.00;2.47;;;;;;;;;;5045528;28;20431;-78
2023/06/06 14:25:00;;;;;;;4.72;2.30;;;;;;;;;;5045625;28;20423;-78
2023/06/06 14:27:31;;;;;;;6.60;2.50;;;;;;;;;;5044558;28;20427;-83
2023/06/06 14:30:00;;;;;;;5.65;2.50;;;;;;;;;;5045108;28;21034;-77
2023/06/06 14:32:30;;;;;;;5.68;2.58;;;;;;;;;;5033528;28;20911;-81
2023/06/06 14:35:04;;;;;;;5.20;2.58;;;;;;;;;;5032091;28;21080;-82
2023/06/06 14:37:33;;;;;;;4.03;2.33;;;;;;;;;;5037341;28;20914;-81
2023/06/06 14:40:07;;;;;;;4.28;2.30;;;;;;;;;;5040977;28;20439;-79
2023/06/06 14:42:40;;;;;;;5.70;2.42;;;;;;;;;;5044580;28;20985;-82
2023/06/06 14:45:14;;;;;;;5.25;2.60;;;;;;;;;;5051567;28;20419;-81
2023/06/06 14:47:41;;;;;;;8.05;3.20;;;;;;;;;;5037738;28;20432;-78
2023/06/06 14:50:15;;;;;;;4.60;2.30;;;;;;;;;;5037740;28;20450;-82
2023/06/06 14:52:44;;;;;;;7.43;2.60;;;;;;;;;;5040094;28;20435;-78
2023/06/06 14:55:12;;;;;;;5.00;2.50;;;;;;;;;;5038444;28;20435;-78
2023/06/06 14:57:40;;;;;;;6.30;2.50;;;;;;;;;;5036703;28;20424;-81
2023/06/06 15:00:13;;;;;;;4.30;2.53;;;;;;;;;;5037531;28;20433;-84
2023/06/06 15:02:41;;;;;;;7.43;2.70;;;;;;;;;;5040596;28;21076;-79
2023/06/06 15:05:09;;;;;;;8.30;2.67;;;;;;;;;;5042526;28;21678;-82